Time,TemperatureF,DewpointF,PressureIn,WindDirection,WindDirectionDegrees,WindSpeedMPH,WindSpeedGustMPH,Humidity,HourlyPrecipIn,Conditions,Clouds,dailyrainin,SoftwareType,DateUTC
2013-09-21 00:08:00,64.7,53.5,29.95,NW,316,1.0,1.0,67,0.00,,,0.00,Wunderground v.1.15,2013-09-21 06:08:00,
2013-09-21 00:18:00,64.4,53.6,29.95,NW,316,1.0,1.0,68,0.00,,,0.00,Wunderground v.1.15,2013-09-21 06:18:00,
2013-09-21 00:28:00,64.1,53.3,29.95,North,353,1.0,1.0,68,0.00,,,0.00,Wunderground v.1.15,2013-09-21 06:28:00,
2013-09-21 00:38:00,63.7,53.3,29.95,North,359,1.0,1.0,69,0.00,,,0.00,Wunderground v.1.15,2013-09-21 06:38:00,
2013-09-21 00:48:00,63.3,53.3,29.95,NNW,339,0.0,0.0,70,0.00,,,0.00,Wunderground v.1.15,2013-09-21 06:48:00,
2013-09-21 00:58:00,62.7,53.2,29.95,NNW,339,0.0,0.0,71,0.00,,,0.00,Wunderground v.1.15,2013-09-21 06:58:00,
2013-09-21 01:03:00,62.2,53.1,29.96,NNW,338,0.0,0.0,72,0.00,,,0.00,Wunderground v.1.15,2013-09-21 07:03:00,
2013-09-21 01:13:00,61.3,53.3,29.96,NNW,337,0.0,0.0,75,0.00,,,0.00,Wunderground v.1.15,2013-09-21 07:13:00,
2013-09-21 01:23:00,61.1,53.5,29.96,NNW,335,0.0,0.0,76,0.00,,,0.00,Wunderground v.1.15,2013-09-21 07:23:00,
2013-09-21 01:33:00,60.8,53.2,29.97,NNW,335,0.0,0.0,76,0.00,,,0.00,Wunderground v.1.15,2013-09-21 07:33:00,
2013-09-21 01:43:00,60.5,53.3,29.97,NNW,335,0.0,0.0,77,0.00,,,0.00,Wunderground v.1.15,2013-09-21 07:43:00,
2013-09-21 01:53:00,60.6,53.3,29.96,NNW,335,0.0,0.0,77,0.00,,,0.00,Wunderground v.1.15,2013-09-21 07:53:00,
2013-09-21 01:58:00,60.3,53.4,29.96,NNW,335,0.0,0.0,78,0.00,,,0.00,Wunderground v.1.15,2013-09-21 07:58:00,
2013-09-21 02:08:00,60.0,53.1,29.96,NNW,342,0.0,0.0,78,0.00,,,0.00,Wunderground v.1.15,2013-09-21 08:08:00,
2013-09-21 02:18:00,59.7,53.5,29.96,NNW,342,0.0,0.0,80,0.00,,,0.00,Wunderground v.1.15,2013-09-21 08:18:00,
2013-09-21 02:28:00,59.3,53.1,29.96,NNW,342,0.0,0.0,80,0.00,,,0.00,Wunderground v.1.15,2013-09-21 08:28:00,
2013-09-21 02:38:00,58.5,53.0,29.96,NNW,342,0.0,0.0,82,0.00,,,0.00,Wunderground v.1.15,2013-09-21 08:38:00,
2013-09-21 02:48:00,58.2,53.1,29.95,NNW,343,0.0,0.0,83,0.00,,,0.00,Wunderground v.1.15,2013-09-21 08:48:00,
2013-09-21 02:58:00,57.8,53.0,29.95,NNW,343,0.0,0.0,84,0.00,,,0.00,Wunderground v.1.15,2013-09-21 08:58:00,
2013-09-21 03:08:00,57.4,52.9,29.95,NNW,343,0.0,0.0,85,0.00,,,0.00,Wunderground v.1.15,2013-09-21 09:08:00,
2013-09-21 03:18:00,57.2,52.7,29.96,NNW,342,0.0,0.0,85,0.00,,,0.00,Wunderground v.1.15,2013-09-21 09:18:00,
2013-09-21 03:28:00,56.8,53.0,29.96,NNW,342,0.0,0.0,87,0.00,,,0.00,Wunderground v.1.15,2013-09-21 09:28:00,
2013-09-21 03:38:00,57.2,53.0,29.95,NNW,342,0.0,0.0,86,0.00,,,0.00,Wunderground v.1.15,2013-09-21 09:38:00,
2013-09-21 03:43:00,57.1,53.0,29.95,NNW,342,0.0,0.0,86,0.00,,,0.00,Wunderground v.1.15,2013-09-21 09:43:00,
2013-09-21 03:53:00,57.0,52.9,29.95,NNW,342,0.0,0.0,86,0.00,,,0.00,Wunderground v.1.15,2013-09-21 09:53:00,
2013-09-21 03:58:00,57.0,52.9,29.95,NNW,342,0.0,0.0,86,0.00,,,0.00,Wunderground v.1.15,2013-09-21 09:58:00,
2013-09-21 04:08:00,57.2,53.0,29.95,North,349,0.0,0.0,86,0.00,,,0.00,Wunderground v.1.15,2013-09-21 10:08:00,
2013-09-21 04:18:00,57.2,53.0,29.95,North,349,0.0,0.0,86,0.00,,,0.00,Wunderground v.1.15,2013-09-21 10:18:00,
2013-09-21 04:28:00,57.6,52.8,29.95,ESE,119,0.0,0.0,84,0.00,,,0.00,Wunderground v.1.15,2013-09-21 10:28:00,
2013-09-21 04:38:00,57.5,52.7,29.95,NNW,337,0.0,0.0,84,0.00,,,0.00,Wunderground v.1.15,2013-09-21 10:38:00,
2013-09-21 04:48:00,57.0,52.5,29.95,NNW,337,0.0,0.0,85,0.00,,,0.00,Wunderground v.1.15,2013-09-21 10:48:00,
2013-09-21 04:58:00,56.5,52.4,29.95,NNW,337,0.0,0.0,86,0.00,,,0.00,Wunderground v.1.15,2013-09-21 10:58:00,
2013-09-21 05:08:00,56.2,52.4,29.95,NNW,338,0.0,0.0,87,0.00,,,0.00,Wunderground v.1.15,2013-09-21 11:08:00,
2013-09-21 05:18:00,55.8,52.3,29.96,NNW,338,0.0,0.0,88,0.00,,,0.00,Wunderground v.1.15,2013-09-21 11:18:00,
2013-09-21 05:28:00,55.5,52.0,29.96,NNW,338,0.0,0.0,88,0.00,,,0.00,Wunderground v.1.15,2013-09-21 11:28:00,
2013-09-21 05:38:00,55.0,52.1,29.96,NNW,337,0.0,0.0,90,0.00,,,0.00,Wunderground v.1.15,2013-09-21 11:38:00,
2013-09-21 05:43:00,54.9,52.0,29.96,NNW,337,0.0,0.0,90,0.00,,,0.00,Wunderground v.1.15,2013-09-21 11:43:00,
2013-09-21 05:53:00,54.9,52.0,29.96,NNW,338,0.0,0.0,90,0.00,,,0.00,Wunderground v.1.15,2013-09-21 11:53:00,
2013-09-21 05:58:00,54.8,52.2,29.96,NNW,337,0.0,0.0,91,0.00,,,0.00,Wunderground v.1.15,2013-09-21 11:58:00,
2013-09-21 06:08:00,55.0,52.4,29.96,ESE,118,0.0,0.0,91,0.00,,,0.00,Wunderground v.1.15,2013-09-21 12:08:00,
2013-09-21 06:18:00,55.1,52.2,29.97,ESE,119,0.0,0.0,90,0.00,,,0.00,Wunderground v.1.15,2013-09-21 12:18:00,
2013-09-21 06:33:00,55.5,52.3,29.97,SE,136,0.0,0.0,89,0.00,,,0.00,Wunderground v.1.15,2013-09-21 12:33:00,
2013-09-21 06:43:00,55.1,51.9,29.97,SE,136,0.0,0.0,89,0.00,,,0.00,Wunderground v.1.15,2013-09-21 12:43:00,
2013-09-21 06:48:00,54.9,52.0,29.98,SE,136,0.0,0.0,90,0.00,,,0.00,Wunderground v.1.15,2013-09-21 12:48:00,
2013-09-21 06:58:00,54.9,52.0,29.98,SE,136,0.0,0.0,90,0.00,,,0.00,Wunderground v.1.15,2013-09-21 12:58:00,
2013-09-21 07:08:00,54.7,52.1,29.98,SE,136,0.0,1.0,91,0.00,,,0.00,Wunderground v.1.15,2013-09-21 13:08:00,
2013-09-21 07:18:00,55.0,52.1,29.98,SE,136,0.0,0.0,90,0.00,,,0.00,Wunderground v.1.15,2013-09-21 13:18:00,
2013-09-21 07:28:00,54.8,52.2,29.98,SE,136,0.0,0.0,91,0.00,,,0.00,Wunderground v.1.15,2013-09-21 13:28:00,
2013-09-21 07:33:00,54.9,52.3,29.98,SE,136,0.0,0.0,91,0.00,,,0.00,Wunderground v.1.15,2013-09-21 13:33:00,
2013-09-21 07:43:00,55.2,52.6,29.98,SE,136,0.0,0.0,91,0.00,,,0.00,Wunderground v.1.15,2013-09-21 13:43:00,
2013-09-21 07:53:00,55.6,53.0,29.98,SE,136,0.0,0.0,91,0.00,,,0.00,Wunderground v.1.15,2013-09-21 13:53:00,
2013-09-21 07:58:00,56.3,53.4,29.98,SE,136,0.0,0.0,90,0.00,,,0.00,Wunderground v.1.15,2013-09-21 13:58:00,
2013-09-21 08:08:00,57.9,54.1,29.98,SE,136,0.0,0.0,87,0.00,,,0.00,Wunderground v.1.15,2013-09-21 14:08:00,
2013-09-21 08:13:00,58.6,54.4,29.98,SE,135,0.0,0.0,86,0.00,,,0.00,Wunderground v.1.15,2013-09-21 14:13:00,
2013-09-21 08:23:00,59.8,54.6,29.99,SE,131,0.0,0.0,83,0.00,,,0.00,Wunderground v.1.15,2013-09-21 14:23:00,
2013-09-21 08:33:00,61.1,54.9,29.99,WSW,256,0.0,0.0,80,0.00,,,0.00,Wunderground v.1.15,2013-09-21 14:33:00,
2013-09-21 08:43:00,62.2,55.3,29.99,West,270,1.0,1.0,78,0.00,,,0.00,Wunderground v.1.15,2013-09-21 14:43:00,
2013-09-21 08:48:00,62.5,55.2,29.99,WSW,242,0.0,0.0,77,0.00,,,0.00,Wunderground v.1.15,2013-09-21 14:48:00,
2013-09-21 08:58:00,63.4,55.3,29.99,West,269,0.0,0.0,75,0.00,,,0.00,Wunderground v.1.15,2013-09-21 14:58:00,
2013-09-21 09:08:00,65.1,55.1,29.99,SSE,167,1.0,1.0,70,0.00,,,0.00,Wunderground v.1.15,2013-09-21 15:08:00,
2013-09-21 09:18:00,66.3,55.4,29.99,SE,138,4.0,4.0,68,0.00,,,0.00,Wunderground v.1.15,2013-09-21 15:18:00,
2013-09-21 09:28:00,67.3,55.1,29.99,SE,136,4.0,4.0,65,0.00,,,0.00,Wunderground v.1.15,2013-09-21 15:28:00,
2013-09-21 09:33:00,67.3,55.1,30.00,SSE,167,4.0,4.0,65,0.00,,,0.00,Wunderground v.1.15,2013-09-21 15:33:00,
2013-09-21 09:43:00,67.4,55.2,30.00,WSW,250,5.0,7.0,65,0.00,,,0.00,Wunderground v.1.15,2013-09-21 15:43:00,
2013-09-21 09:53:00,67.7,55.1,29.99,South,191,4.0,5.0,64,0.00,,,0.00,Wunderground v.1.15,2013-09-21 15:53:00,
2013-09-21 09:58:00,67.8,55.2,29.99,SE,139,5.0,10.0,64,0.00,,,0.00,Wunderground v.1.15,2013-09-21 15:58:00,
2013-09-21 10:08:00,68.0,55.4,30.00,SE,131,4.0,4.0,64,0.00,,,0.00,Wunderground v.1.15,2013-09-21 16:08:00,
2013-09-21 10:18:00,69.1,55.5,29.99,South,176,2.0,4.0,62,0.00,,,0.00,Wunderground v.1.15,2013-09-21 16:18:00,
2013-09-21 10:28:00,69.1,55.5,29.99,SSE,152,4.0,11.0,62,0.00,,,0.00,Wunderground v.1.15,2013-09-21 16:28:00,
2013-09-21 10:38:00,68.8,56.1,29.99,SSE,148,6.0,6.0,64,0.00,,,0.00,Wunderground v.1.15,2013-09-21 16:38:00,
2013-09-21 10:48:00,69.4,55.8,29.99,SSW,193,5.0,6.0,62,0.00,,,0.00,Wunderground v.1.15,2013-09-21 16:48:00,
2013-09-21 10:58:00,69.6,56.4,29.98,West,266,5.0,5.0,63,0.00,,,0.00,Wunderground v.1.15,2013-09-21 16:58:00,
2013-09-21 11:08:00,69.9,56.3,29.98,SSE,167,5.0,5.0,62,0.00,,,0.00,Wunderground v.1.15,2013-09-21 17:08:00,
2013-09-21 11:18:00,70.7,56.1,29.98,SE,136,3.0,5.0,60,0.00,,,0.00,Wunderground v.1.15,2013-09-21 17:18:00,
2013-09-21 11:28:00,70.7,56.1,29.97,SW,218,5.0,5.0,60,0.00,,,0.00,Wunderground v.1.15,2013-09-21 17:28:00,
2013-09-21 11:33:00,70.9,56.8,29.97,SSW,193,5.0,5.0,61,0.00,,,0.00,Wunderground v.1.15,2013-09-21 17:33:00,
2013-09-21 11:43:00,71.7,56.6,29.97,WSW,238,3.0,4.0,59,0.00,,,0.00,Wunderground v.1.15,2013-09-21 17:43:00,
2013-09-21 11:53:00,71.4,55.9,29.96,SSE,163,6.0,6.0,58,0.00,,,0.00,Wunderground v.1.15,2013-09-21 17:53:00,
2013-09-21 11:58:00,71.8,56.7,29.96,SSW,193,5.0,6.0,59,0.00,,,0.00,Wunderground v.1.15,2013-09-21 17:58:00,
2013-09-21 12:08:00,72.6,56.5,29.95,SE,145,4.0,4.0,57,0.00,,,0.00,Wunderground v.1.15,2013-09-21 18:08:00,
2013-09-21 12:18:00,73.2,56.6,29.95,SE,146,3.0,7.0,56,0.00,,,0.00,Wunderground v.1.15,2013-09-21 18:18:00,
2013-09-21 12:28:00,73.2,56.1,29.95,SE,141,4.0,6.0,55,0.00,,,0.00,Wunderground v.1.15,2013-09-21 18:28:00,
2013-09-21 12:38:00,73.1,56.5,29.94,ESE,119,5.0,10.0,56,0.00,,,0.00,Wunderground v.1.15,2013-09-21 18:38:00,
2013-09-21 12:48:00,73.8,56.1,29.94,SSE,151,5.0,5.0,54,0.00,,,0.00,Wunderground v.1.15,2013-09-21 18:48:00,
2013-09-21 12:58:00,74.4,55.6,29.93,SSW,194,4.0,4.0,52,0.00,,,0.00,Wunderground v.1.15,2013-09-21 18:58:00,
2013-09-21 13:08:00,74.6,56.9,29.93,West,262,4.0,4.0,54,0.00,,,0.00,Wunderground v.1.15,2013-09-21 19:08:00,
2013-09-21 13:18:00,75.5,56.6,29.92,SSE,152,3.0,3.0,52,0.00,,,0.00,Wunderground v.1.15,2013-09-21 19:18:00,
2013-09-21 13:28:00,76.5,57.0,29.91,South,176,2.0,7.0,51,0.00,,,0.00,Wunderground v.1.15,2013-09-21 19:28:00,
2013-09-21 13:33:00,76.1,55.0,29.91,SSE,168,4.0,7.0,48,0.00,,,0.00,Wunderground v.1.15,2013-09-21 19:33:00,
2013-09-21 13:43:00,76.1,55.0,29.91,SE,132,5.0,8.0,48,0.00,,,0.00,Wunderground v.1.15,2013-09-21 19:43:00,
2013-09-21 13:58:00,76.8,55.0,29.90,SSE,165,3.0,3.0,47,0.00,,,0.00,Wunderground v.1.15,2013-09-21 19:58:00,
2013-09-21 14:08:00,76.7,55.5,29.90,SSE,148,5.0,5.0,48,0.00,,,0.00,Wunderground v.1.15,2013-09-21 20:08:00,
2013-09-21 14:18:00,77.0,54.6,29.89,SW,236,3.0,4.0,46,0.00,,,0.00,Wunderground v.1.15,2013-09-21 20:18:00,
2013-09-21 14:28:00,77.1,53.5,29.88,SE,139,5.0,5.0,44,0.00,,,0.00,Wunderground v.1.15,2013-09-21 20:28:00,
2013-09-21 14:33:00,77.8,54.1,29.88,SSW,195,4.0,5.0,44,0.00,,,0.00,Wunderground v.1.15,2013-09-21 20:33:00,
2013-09-21 14:38:00,77.6,53.3,29.87,SSE,148,4.0,8.0,43,0.00,,,0.00,Wunderground v.1.15,2013-09-21 20:38:00,
2013-09-21 14:48:00,77.9,54.8,29.87,SSE,150,4.0,4.0,45,0.00,,,0.00,Wunderground v.1.15,2013-09-21 20:48:00,
2013-09-21 14:58:00,78.6,53.6,29.86,ESE,121,4.0,4.0,42,0.00,,,0.00,Wunderground v.1.15,2013-09-21 20:58:00,
2013-09-21 15:08:00,78.8,54.4,29.86,SSW,201,4.0,11.0,43,0.00,,,0.00,Wunderground v.1.15,2013-09-21 21:08:00,
2013-09-21 15:13:00,78.5,53.5,29.86,South,186,4.0,11.0,42,0.00,,,0.00,Wunderground v.1.15,2013-09-21 21:13:00,
2013-09-21 15:23:00,79.3,54.2,29.85,SSW,210,3.0,4.0,42,0.00,,,0.00,Wunderground v.1.15,2013-09-21 21:23:00,
2013-09-21 15:33:00,79.7,53.2,29.85,SSW,205,3.0,9.0,40,0.00,,,0.00,Wunderground v.1.15,2013-09-21 21:33:00,
2013-09-21 15:43:00,79.4,53.0,29.84,SSW,200,4.0,4.0,40,0.00,,,0.00,Wunderground v.1.15,2013-09-21 21:43:00,
2013-09-21 15:53:00,79.5,53.7,29.83,South,181,3.0,3.0,41,0.00,,,0.00,Wunderground v.1.15,2013-09-21 21:53:00,
2013-09-21 15:58:00,79.9,52.7,29.83,SSE,152,3.0,3.0,39,0.00,,,0.00,Wunderground v.1.15,2013-09-21 21:58:00,
2013-09-21 16:08:00,80.8,52.8,29.83,SSE,160,2.0,2.0,38,0.00,,,0.00,Wunderground v.1.15,2013-09-21 22:08:00,
2013-09-21 16:13:00,80.4,51.7,29.83,South,172,4.0,4.0,37,0.00,,,0.00,Wunderground v.1.15,2013-09-21 22:13:00,
2013-09-21 16:23:00,80.1,51.5,29.82,SW,218,4.0,5.0,37,0.00,,,0.00,Wunderground v.1.15,2013-09-21 22:23:00,
2013-09-21 16:33:00,80.3,52.4,29.82,WSW,243,4.0,5.0,38,0.00,,,0.00,Wunderground v.1.15,2013-09-21 22:33:00,
2013-09-21 16:43:00,79.6,51.0,29.82,SSE,164,5.0,10.0,37,0.00,,,0.00,Wunderground v.1.15,2013-09-21 22:43:00,
2013-09-21 16:53:00,79.8,51.9,29.81,South,191,5.0,6.0,38,0.00,,,0.00,Wunderground v.1.15,2013-09-21 22:53:00,
2013-09-21 16:58:00,79.7,52.5,29.81,SW,229,5.0,5.0,39,0.00,,,0.00,Wunderground v.1.15,2013-09-21 22:58:00,
2013-09-21 17:08:00,79.8,51.2,29.81,SSE,148,4.0,6.0,37,0.00,,,0.00,Wunderground v.1.15,2013-09-21 23:08:00,
2013-09-21 17:18:00,79.9,52.0,29.81,SSE,163,4.0,6.0,38,0.00,,,0.00,Wunderground v.1.15,2013-09-21 23:18:00,
2013-09-21 17:28:00,79.7,51.8,29.80,East,99,4.0,8.0,38,0.00,,,0.00,Wunderground v.1.15,2013-09-21 23:28:00,
2013-09-21 17:38:00,79.4,52.3,29.81,SSW,198,5.0,5.0,39,0.00,,,0.00,Wunderground v.1.15,2013-09-21 23:38:00,
2013-09-21 17:48:00,78.8,51.7,29.81,SE,145,6.0,6.0,39,0.00,,,0.00,Wunderground v.1.15,2013-09-21 23:48:00,
2013-09-21 17:58:00,78.8,51.0,29.80,SSE,160,4.0,4.0,38,0.00,,,0.00,Wunderground v.1.15,2013-09-21 23:58:00,
2013-09-21 18:08:00,78.5,51.5,29.80,SSW,194,5.0,5.0,39,0.00,,,0.00,Wunderground v.1.15,2013-09-22 00:08:00,
2013-09-21 18:18:00,78.2,51.2,29.80,SSE,162,5.0,5.0,39,0.00,,,0.00,Wunderground v.1.15,2013-09-22 00:18:00,
2013-09-21 18:28:00,78.0,50.3,29.80,SSW,193,4.0,4.0,38,0.00,,,0.00,Wunderground v.1.15,2013-09-22 00:28:00,
2013-09-21 18:38:00,77.7,50.8,29.80,SSW,200,3.0,3.0,39,0.00,,,0.00,Wunderground v.1.15,2013-09-22 00:38:00,
2013-09-21 18:43:00,77.3,50.4,29.80,SSE,152,4.0,5.0,39,0.00,,,0.00,Wunderground v.1.15,2013-09-22 00:43:00,
2013-09-21 18:53:00,76.2,49.4,29.80,SSW,203,5.0,6.0,39,0.00,,,0.00,Wunderground v.1.15,2013-09-22 00:53:00,
2013-09-21 18:58:00,75.4,50.1,29.80,SSE,162,5.0,5.0,41,0.00,,,0.00,Wunderground v.1.15,2013-09-22 00:58:00,
2013-09-21 19:08:00,74.4,49.8,29.80,SW,215,4.0,7.0,42,0.00,,,0.00,Wunderground v.1.15,2013-09-22 01:08:00,
2013-09-21 19:18:00,73.9,50.0,29.80,SSE,148,5.0,5.0,43,0.00,,,0.00,Wunderground v.1.15,2013-09-22 01:18:00,
2013-09-21 19:28:00,73.4,50.2,29.80,SSE,159,4.0,4.0,44,0.00,,,0.00,Wunderground v.1.15,2013-09-22 01:28:00,
2013-09-21 19:38:00,73.0,50.4,29.80,SSE,153,4.0,4.0,45,0.00,,,0.00,Wunderground v.1.15,2013-09-22 01:38:00,
2013-09-21 19:48:00,72.6,50.0,29.80,SE,136,4.0,4.0,45,0.00,,,0.00,Wunderground v.1.15,2013-09-22 01:48:00,
2013-09-21 19:58:00,72.2,50.3,29.81,South,186,4.0,4.0,46,0.00,,,0.00,Wunderground v.1.15,2013-09-22 01:58:00,
2013-09-21 20:08:00,71.8,51.0,29.81,ESE,118,3.0,3.0,48,0.00,,,0.00,Wunderground v.1.15,2013-09-22 02:08:00,
2013-09-21 20:18:00,71.1,51.0,29.81,SE,127,3.0,4.0,49,0.00,,,0.00,Wunderground v.1.15,2013-09-22 02:18:00,
2013-09-21 20:28:00,70.6,50.5,29.81,ESE,121,4.0,4.0,49,0.00,,,0.00,Wunderground v.1.15,2013-09-22 02:28:00,
2013-09-21 20:38:00,70.2,50.1,29.82,SE,131,3.0,3.0,49,0.00,,,0.00,Wunderground v.1.15,2013-09-22 02:38:00,
2013-09-21 20:48:00,69.8,50.3,29.82,ENE,68,1.0,3.0,50,0.00,,,0.00,Wunderground v.1.15,2013-09-22 02:48:00,
2013-09-21 20:58:00,69.6,50.1,29.82,SSE,160,4.0,4.0,50,0.00,,,0.00,Wunderground v.1.15,2013-09-22 02:58:00,
2013-09-21 21:08:00,69.3,50.4,29.82,SE,132,3.0,3.0,51,0.00,,,0.00,Wunderground v.1.15,2013-09-22 03:08:00,
2013-09-21 21:18:00,69.0,50.1,29.83,ESE,123,3.0,4.0,51,0.00,,,0.00,Wunderground v.1.15,2013-09-22 03:18:00,
2013-09-21 21:23:00,68.8,50.5,29.83,SE,134,3.0,4.0,52,0.00,,,0.00,Wunderground v.1.15,2013-09-22 03:23:00,
2013-09-21 21:33:00,68.4,50.1,29.83,SE,136,2.0,4.0,52,0.00,,,0.00,Wunderground v.1.15,2013-09-22 03:33:00,
2013-09-21 21:43:00,68.3,50.0,29.83,South,172,3.0,4.0,52,0.00,,,0.00,Wunderground v.1.15,2013-09-22 03:43:00,
2013-09-21 21:53:00,68.1,49.8,29.83,SSE,156,2.0,3.0,52,0.00,,,0.00,Wunderground v.1.15,2013-09-22 03:53:00,
2013-09-21 21:58:00,68.2,49.9,29.84,SE,131,3.0,3.0,52,0.00,,,0.00,Wunderground v.1.15,2013-09-22 03:58:00,
2013-09-21 22:03:00,68.2,49.9,29.84,SSE,149,4.0,4.0,52,0.00,,,0.00,Wunderground v.1.15,2013-09-22 04:03:00,
2013-09-21 22:08:00,68.1,50.3,29.83,ESE,103,4.0,4.0,53,0.00,,,0.00,Wunderground v.1.15,2013-09-22 04:08:00,
2013-09-21 22:13:00,67.9,50.1,29.83,ESE,120,4.0,4.0,53,0.00,,,0.00,Wunderground v.1.15,2013-09-22 04:13:00,
2013-09-21 22:23:00,67.8,51.0,29.83,ESE,122,2.0,3.0,55,0.00,,,0.00,Wunderground v.1.15,2013-09-22 04:23:00,
2013-09-21 22:28:00,67.8,51.0,29.83,SE,124,2.0,2.0,55,0.00,,,0.00,Wunderground v.1.15,2013-09-22 04:28:00,
2013-09-21 22:33:00,67.8,51.5,29.84,ESE,110,3.0,3.0,56,0.00,,,0.00,Wunderground v.1.15,2013-09-22 04:33:00,
2013-09-21 22:43:00,67.6,51.8,29.83,SSE,148,2.0,3.0,57,0.00,,,0.00,Wunderground v.1.15,2013-09-22 04:43:00,
2013-09-21 22:53:00,67.5,52.2,29.83,ESE,119,3.0,4.0,58,0.00,,,0.00,Wunderground v.1.15,2013-09-22 04:53:00,
2013-09-21 22:58:00,67.5,52.2,29.83,ESE,120,3.0,3.0,58,0.00,,,0.00,Wunderground v.1.15,2013-09-22 04:58:00,
2013-09-21 23:08:00,67.3,52.5,29.84,ESE,121,3.0,3.0,59,0.00,,,0.00,Wunderground v.1.15,2013-09-22 05:08:00,
2013-09-21 23:13:00,67.3,52.5,29.84,SE,131,3.0,3.0,59,0.00,,,0.00,Wunderground v.1.15,2013-09-22 05:13:00,
2013-09-21 23:23:00,67.1,52.3,29.84,SSE,148,3.0,3.0,59,0.00,,,0.00,Wunderground v.1.15,2013-09-22 05:23:00,
2013-09-21 23:33:00,67.0,52.2,29.84,SE,146,3.0,3.0,59,0.00,,,0.00,Wunderground v.1.15,2013-09-22 05:33:00,
2013-09-21 23:43:00,66.9,52.1,29.84,SSE,154,3.0,6.0,59,0.00,,,0.00,Wunderground v.1.15,2013-09-22 05:43:00,
2013-09-21 23:53:00,66.7,51.9,29.84,SE,132,2.0,3.0,59,0.00,,,0.00,Wunderground v.1.15,2013-09-22 05:53:00,
2013-09-21 23:58:00,66.7,51.9,29.84,East,91,2.0,3.0,59,0.00,,,0.00,Wunderground v.1.15,2013-09-22 05:58:00,